sensor_id;sensor_type;location;lat;lon;timestamp;temperature;humidity
47813;DHT22;34221;45.296;9.516;2023-04-26T00:00:07;11.80;91.20
47813;DHT22;34221;45.296;9.516;2023-04-26T00:00:22;11.80;91.20
47813;DHT22;34221;45.296;9.516;2023-04-26T00:00:47;11.80;91.20
47813;DHT22;34221;45.296;9.516;2023-04-26T00:01:02;11.70;91.10
47813;DHT22;34221;45.296;9.516;2023-04-26T00:01:18;11.70;91.10
47813;DHT22;34221;45.296;9.516;2023-04-26T00:01:33;11.70;91.20
47813;DHT22;34221;45.296;9.516;2023-04-26T00:01:48;11.70;91.20
47813;DHT22;34221;45.296;9.516;2023-04-26T00:02:03;11.70;91.30
47813;DHT22;34221;45.296;9.516;2023-04-26T00:02:18;11.70;91.30
47813;DHT22;34221;45.296;9.516;2023-04-26T00:02:34;11.70;91.40
47813;DHT22;34221;45.296;9.516;2023-04-26T00:02:50;11.70;91.40
47813;DHT22;34221;45.296;9.516;2023-04-26T00:03:06;11.70;91.50
47813;DHT22;34221;45.296;9.516;2023-04-26T00:03:21;11.70;91.50
47813;DHT22;34221;45.296;9.516;2023-04-26T00:03:36;11.70;91.60
47813;DHT22;34221;45.296;9.516;2023-04-26T00:03:53;11.70;91.60
47813;DHT22;34221;45.296;9.516;2023-04-26T00:04:09;11.70;91.60
47813;DHT22;34221;45.296;9.516;2023-04-26T00:04:24;11.70;91.60
47813;DHT22;34221;45.296;9.516;2023-04-26T00:04:39;11.70;91.60
47813;DHT22;34221;45.296;9.516;2023-04-26T00:04:53;11.70;91.60
47813;DHT22;34221;45.296;9.516;2023-04-26T00:05:09;11.70;91.60
47813;DHT22;34221;45.296;9.516;2023-04-26T00:05:24;11.70;91.50
47813;DHT22;34221;45.296;9.516;2023-04-26T00:05:39;11.70;91.50
47813;DHT22;34221;45.296;9.516;2023-04-26T00:05:54;11.70;91.60
47813;DHT22;34221;45.296;9.516;2023-04-26T00:06:09;11.70;91.50
47813;DHT22;34221;45.296;9.516;2023-04-26T00:06:23;11.70;91.50
47813;DHT22;34221;45.296;9.516;2023-04-26T00:06:40;11.70;91.50
47813;DHT22;34221;45.296;9.516;2023-04-26T00:06:55;11.70;91.60
47813;DHT22;34221;45.296;9.516;2023-04-26T00:07:10;11.60;91.60
47813;DHT22;34221;45.296;9.516;2023-04-26T00:07:27;11.60;91.60
47813;DHT22;34221;45.296;9.516;2023-04-26T00:07:44;11.60;91.50
47813;DHT22;34221;45.296;9.516;2023-04-26T00:07:59;11.70;91.80
47813;DHT22;34221;45.296;9.516;2023-04-26T00:08:14;11.70;91.50
47813;DHT22;34221;45.296;9.516;2023-04-26T00:08:28;11.70;91.70
47813;DHT22;34221;45.296;9.516;2023-04-26T00:08:43;11.70;91.50
47813;DHT22;34221;45.296;9.516;2023-04-26T00:08:58;11.70;91.50
47813;DHT22;34221;45.296;9.516;2023-04-26T00:09:12;11.70;91.60
47813;DHT22;34221;45.296;9.516;2023-04-26T00:09:28;11.70;91.60
47813;DHT22;34221;45.296;9.516;2023-04-26T00:09:42;11.70;91.50
47813;DHT22;34221;45.296;9.516;2023-04-26T00:09:58;11.70;91.50
47813;DHT22;34221;45.296;9.516;2023-04-26T00:10:13;11.70;91.50
47813;DHT22;34221;45.296;9.516;2023-04-26T00:10:27;11.70;91.50
47813;DHT22;34221;45.296;9.516;2023-04-26T00:10:42;11.60;91.40
47813;DHT22;34221;45.296;9.516;2023-04-26T00:10:57;11.60;91.40
47813;DHT22;34221;45.296;9.516;2023-04-26T00:11:12;11.60;91.40
47813;DHT22;34221;45.296;9.516;2023-04-26T00:11:26;11.60;91.40
47813;DHT22;34221;45.296;9.516;2023-04-26T00:11:41;11.60;91.40
47813;DHT22;34221;45.296;9.516;2023-04-26T00:11:56;11.50;91.40
47813;DHT22;34221;45.296;9.516;2023-04-26T00:12:11;11.50;91.50
47813;DHT22;34221;45.296;9.516;2023-04-26T00:12:26;11.50;91.60
47813;DHT22;34221;45.296;9.516;2023-04-26T00:12:41;11.50;91.50
47813;DHT22;34221;45.296;9.516;2023-04-26T00:12:56;11.50;91.50
47813;DHT22;34221;45.296;9.516;2023-04-26T00:13:10;11.40;91.50
47813;DHT22;34221;45.296;9.516;2023-04-26T00:13:25;11.40;91.50
47813;DHT22;34221;45.296;9.516;2023-04-26T00:13:40;11.40;91.40
47813;DHT22;34221;45.296;9.516;2023-04-26T00:13:57;11.40;91.40
47813;DHT22;34221;45.296;9.516;2023-04-26T00:14:12;11.40;91.50
47813;DHT22;34221;45.296;9.516;2023-04-26T00:14:27;11.40;91.60
47813;DHT22;34221;45.296;9.516;2023-04-26T00:14:42;11.40;91.60
47813;DHT22;34221;45.296;9.516;2023-04-26T00:14:56;11.30;91.60
47813;DHT22;34221;45.296;9.516;2023-04-26T00:15:11;11.30;91.70
47813;DHT22;34221;45.296;9.516;2023-04-26T00:15:26;11.30;91.80
47813;DHT22;34221;45.296;9.516;2023-04-26T00:15:41;11.30;91.70
47813;DHT22;34221;45.296;9.516;2023-04-26T00:15:55;11.30;91.90
47813;DHT22;34221;45.296;9.516;2023-04-26T00:16:12;11.30;92.20
47813;DHT22;34221;45.296;9.516;2023-04-26T00:16:26;11.30;92.00
47813;DHT22;34221;45.296;9.516;2023-04-26T00:16:41;11.30;92.20
47813;DHT22;34221;45.296;9.516;2023-04-26T00:16:56;11.30;92.10
47813;DHT22;34221;45.296;9.516;2023-04-26T00:17:10;11.30;92.10
47813;DHT22;34221;45.296;9.516;2023-04-26T00:17:25;11.20;92.20
47813;DHT22;34221;45.296;9.516;2023-04-26T00:17:40;11.20;92.50
47813;DHT22;34221;45.296;9.516;2023-04-26T00:17:56;11.20;92.40
47813;DHT22;34221;45.296;9.516;2023-04-26T00:18:10;11.20;92.10
47813;DHT22;34221;45.296;9.516;2023-04-26T00:18:26;11.20;92.20
47813;DHT22;34221;45.296;9.516;2023-04-26T00:18:40;11.20;92.30
47813;DHT22;34221;45.296;9.516;2023-04-26T00:18:56;11.20;92.40
47813;DHT22;34221;45.296;9.516;2023-04-26T00:19:11;11.20;92.40
47813;DHT22;34221;45.296;9.516;2023-04-26T00:19:26;11.20;92.50
47813;DHT22;34221;45.296;9.516;2023-04-26T00:19:41;11.20;92.40
47813;DHT22;34221;45.296;9.516;2023-04-26T00:19:59;11.20;92.50
47813;DHT22;34221;45.296;9.516;2023-04-26T00:20:14;11.20;92.50
47813;DHT22;34221;45.296;9.516;2023-04-26T00:20:29;11.20;92.50
47813;DHT22;34221;45.296;9.516;2023-04-26T00:20:44;11.20;92.60
47813;DHT22;34221;45.296;9.516;2023-04-26T00:20:58;11.20;92.70
47813;DHT22;34221;45.296;9.516;2023-04-26T00:21:13;11.20;92.70
47813;DHT22;34221;45.296;9.516;2023-04-26T00:21:28;11.20;92.80
47813;DHT22;34221;45.296;9.516;2023-04-26T00:21:43;11.20;92.80
47813;DHT22;34221;45.296;9.516;2023-04-26T00:21:58;11.10;92.70
47813;DHT22;34221;45.296;9.516;2023-04-26T00:22:12;11.10;92.80
47813;DHT22;34221;45.296;9.516;2023-04-26T00:22:28;11.10;92.80
47813;DHT22;34221;45.296;9.516;2023-04-26T00:22:43;11.10;92.80
47813;DHT22;34221;45.296;9.516;2023-04-26T00:22:58;11.10;92.90
47813;DHT22;34221;45.296;9.516;2023-04-26T00:23:12;11.00;92.90
47813;DHT22;34221;45.296;9.516;2023-04-26T00:23:27;11.00;93.00
47813;DHT22;34221;45.296;9.516;2023-04-26T00:23:42;11.00;93.00
47813;DHT22;34221;45.296;9.516;2023-04-26T00:23:57;11.00;93.10
47813;DHT22;34221;45.296;9.516;2023-04-26T00:24:12;10.90;93.10
47813;DHT22;34221;45.296;9.516;2023-04-26T00:24:26;10.90;93.30
47813;DHT22;34221;45.296;9.516;2023-04-26T00:24:41;11.00;93.30
47813;DHT22;34221;45.296;9.516;2023-04-26T00:24:56;10.90;93.10
47813;DHT22;34221;45.296;9.516;2023-04-26T00:25:11;11.00;93.20
47813;DHT22;34221;45.296;9.516;2023-04-26T00:25:27;11.00;93.20
47813;DHT22;34221;45.296;9.516;2023-04-26T00:25:42;10.90;93.20
47813;DHT22;34221;45.296;9.516;2023-04-26T00:25:56;10.90;93.30
47813;DHT22;34221;45.296;9.516;2023-04-26T00:26:11;11.00;93.40
47813;DHT22;34221;45.296;9.516;2023-04-26T00:26:26;10.90;93.40
47813;DHT22;34221;45.296;9.516;2023-04-26T00:26:41;11.00;93.40
47813;DHT22;34221;45.296;9.516;2023-04-26T00:26:55;11.00;93.30
47813;DHT22;34221;45.296;9.516;2023-04-26T00:27:10;11.00;93.50
47813;DHT22;34221;45.296;9.516;2023-04-26T00:27:25;11.00;93.70
47813;DHT22;34221;45.296;9.516;2023-04-26T00:27:40;11.00;93.70
47813;DHT22;34221;45.296;9.516;2023-04-26T00:27:55;11.00;93.70
47813;DHT22;34221;45.296;9.516;2023-04-26T00:28:09;11.00;93.80
47813;DHT22;34221;45.296;9.516;2023-04-26T00:28:24;11.00;93.80
47813;DHT22;34221;45.296;9.516;2023-04-26T00:28:39;11.00;93.70
47813;DHT22;34221;45.296;9.516;2023-04-26T00:28:54;11.00;93.60
47813;DHT22;34221;45.296;9.516;2023-04-26T00:29:09;10.90;93.60
47813;DHT22;34221;45.296;9.516;2023-04-26T00:29:24;11.00;93.60
47813;DHT22;34221;45.296;9.516;2023-04-26T00:29:39;11.00;93.50
47813;DHT22;34221;45.296;9.516;2023-04-26T00:29:54;11.00;93.50
47813;DHT22;34221;45.296;9.516;2023-04-26T00:30:09;11.00;93.60
47813;DHT22;34221;45.296;9.516;2023-04-26T00:30:25;11.00;93.60
47813;DHT22;34221;45.296;9.516;2023-04-26T00:30:39;11.00;93.50
47813;DHT22;34221;45.296;9.516;2023-04-26T00:31:01;11.00;93.50
47813;DHT22;34221;45.296;9.516;2023-04-26T00:31:16;11.00;93.70
47813;DHT22;34221;45.296;9.516;2023-04-26T00:31:31;11.00;93.70
47813;DHT22;34221;45.296;9.516;2023-04-26T00:31:45;11.00;93.70
47813;DHT22;34221;45.296;9.516;2023-04-26T00:32:00;11.00;93.60
47813;DHT22;34221;45.296;9.516;2023-04-26T00:32:15;11.00;93.70
47813;DHT22;34221;45.296;9.516;2023-04-26T00:32:30;11.00;93.70
47813;DHT22;34221;45.296;9.516;2023-04-26T00:32:45;10.90;93.70
47813;DHT22;34221;45.296;9.516;2023-04-26T00:33:01;10.90;93.70
47813;DHT22;34221;45.296;9.516;2023-04-26T00:33:16;10.90;93.80
47813;DHT22;34221;45.296;9.516;2023-04-26T00:33:31;10.90;93.80
47813;DHT22;34221;45.296;9.516;2023-04-26T00:33:46;10.90;93.90
47813;DHT22;34221;45.296;9.516;2023-04-26T00:34:00;10.90;93.90
47813;DHT22;34221;45.296;9.516;2023-04-26T00:34:15;10.90;93.90
47813;DHT22;34221;45.296;9.516;2023-04-26T00:34:37;10.90;94.00
47813;DHT22;34221;45.296;9.516;2023-04-26T00:34:52;10.90;94.00
47813;DHT22;34221;45.296;9.516;2023-04-26T00:35:07;10.90;94.00
47813;DHT22;34221;45.296;9.516;2023-04-26T00:35:22;10.90;94.00
47813;DHT22;34221;45.296;9.516;2023-04-26T00:35:37;11.00;94.10
47813;DHT22;34221;45.296;9.516;2023-04-26T00:35:52;10.90;94.10
47813;DHT22;34221;45.296;9.516;2023-04-26T00:36:07;10.90;94.30
47813;DHT22;34221;45.296;9.516;2023-04-26T00:36:21;10.90;94.40
47813;DHT22;34221;45.296;9.516;2023-04-26T00:36:36;10.90;94.20
47813;DHT22;34221;45.296;9.516;2023-04-26T00:36:51;10.90;94.20
47813;DHT22;34221;45.296;9.516;2023-04-26T00:37:06;10.90;94.30
47813;DHT22;34221;45.296;9.516;2023-04-26T00:37:21;10.90;94.30
47813;DHT22;34221;45.296;9.516;2023-04-26T00:37:36;10.90;94.30
47813;DHT22;34221;45.296;9.516;2023-04-26T00:37:51;10.90;94.30
47813;DHT22;34221;45.296;9.516;2023-04-26T00:38:06;10.90;94.40
47813;DHT22;34221;45.296;9.516;2023-04-26T00:38:21;10.90;94.50
47813;DHT22;34221;45.296;9.516;2023-04-26T00:38:36;10.90;94.70
47813;DHT22;34221;45.296;9.516;2023-04-26T00:38:50;10.90;94.80
47813;DHT22;34221;45.296;9.516;2023-04-26T00:39:05;10.90;94.80
47813;DHT22;34221;45.296;9.516;2023-04-26T00:39:20;10.80;94.80
47813;DHT22;34221;45.296;9.516;2023-04-26T00:39:35;10.80;94.70
47813;DHT22;34221;45.296;9.516;2023-04-26T00:39:50;10.80;94.80
47813;DHT22;34221;45.296;9.516;2023-04-26T00:40:05;10.80;94.80
47813;DHT22;34221;45.296;9.516;2023-04-26T00:40:20;10.80;95.00
47813;DHT22;34221;45.296;9.516;2023-04-26T00:40:35;10.80;95.10
47813;DHT22;34221;45.296;9.516;2023-04-26T00:40:50;10.90;95.20
47813;DHT22;34221;45.296;9.516;2023-04-26T00:41:04;10.80;95.10
47813;DHT22;34221;45.296;9.516;2023-04-26T00:41:19;10.90;95.10
47813;DHT22;34221;45.296;9.516;2023-04-26T00:41:34;10.90;95.00
47813;DHT22;34221;45.296;9.516;2023-04-26T00:41:49;10.90;95.20
47813;DHT22;34221;45.296;9.516;2023-04-26T00:42:03;10.90;95.20
47813;DHT22;34221;45.296;9.516;2023-04-26T00:42:18;10.90;95.20
47813;DHT22;34221;45.296;9.516;2023-04-26T00:42:33;10.90;95.20
47813;DHT22;34221;45.296;9.516;2023-04-26T00:42:48;10.90;95.20
47813;DHT22;34221;45.296;9.516;2023-04-26T00:43:02;10.90;95.10
47813;DHT22;34221;45.296;9.516;2023-04-26T00:43:17;10.90;95.10
47813;DHT22;34221;45.296;9.516;2023-04-26T00:43:32;10.90;95.20
47813;DHT22;34221;45.296;9.516;2023-04-26T00:43:47;10.90;95.20
47813;DHT22;34221;45.296;9.516;2023-04-26T00:44:02;10.90;95.10
47813;DHT22;34221;45.296;9.516;2023-04-26T00:44:17;10.90;95.10
47813;DHT22;34221;45.296;9.516;2023-04-26T00:44:31;10.90;95.20
47813;DHT22;34221;45.296;9.516;2023-04-26T00:44:46;10.80;95.20
47813;DHT22;34221;45.296;9.516;2023-04-26T00:45:03;10.80;95.20
47813;DHT22;34221;45.296;9.516;2023-04-26T00:45:19;10.80;95.10
47813;DHT22;34221;45.296;9.516;2023-04-26T00:45:34;10.70;95.30
47813;DHT22;34221;45.296;9.516;2023-04-26T00:45:49;10.80;95.30
47813;DHT22;34221;45.296;9.516;2023-04-26T00:46:05;10.70;95.30
47813;DHT22;34221;45.296;9.516;2023-04-26T00:46:21;10.80;95.80
47813;DHT22;34221;45.296;9.516;2023-04-26T00:46:36;10.70;95.70
47813;DHT22;34221;45.296;9.516;2023-04-26T00:46:52;10.70;95.70
47813;DHT22;34221;45.296;9.516;2023-04-26T00:47:07;10.70;95.70
47813;DHT22;34221;45.296;9.516;2023-04-26T00:47:24;10.70;95.70
47813;DHT22;34221;45.296;9.516;2023-04-26T00:47:39;10.70;95.60
47813;DHT22;34221;45.296;9.516;2023-04-26T00:47:54;10.60;95.60
47813;DHT22;34221;45.296;9.516;2023-04-26T00:48:09;10.60;95.70
47813;DHT22;34221;45.296;9.516;2023-04-26T00:48:25;10.60;95.50
47813;DHT22;34221;45.296;9.516;2023-04-26T00:48:40;10.60;95.50
47813;DHT22;34221;45.296;9.516;2023-04-26T00:48:56;10.60;95.50
47813;DHT22;34221;45.296;9.516;2023-04-26T00:49:15;10.60;95.70
47813;DHT22;34221;45.296;9.516;2023-04-26T00:49:30;10.60;95.70
47813;DHT22;34221;45.296;9.516;2023-04-26T00:49:44;10.60;95.70
47813;DHT22;34221;45.296;9.516;2023-04-26T00:50:00;10.60;95.80
47813;DHT22;34221;45.296;9.516;2023-04-26T00:50:15;10.60;95.80
47813;DHT22;34221;45.296;9.516;2023-04-26T00:50:30;10.50;95.80
47813;DHT22;34221;45.296;9.516;2023-04-26T00:50:46;10.50;95.90
47813;DHT22;34221;45.296;9.516;2023-04-26T00:51:05;10.50;96.00
47813;DHT22;34221;45.296;9.516;2023-04-26T00:51:20;10.50;96.10
47813;DHT22;34221;45.296;9.516;2023-04-26T00:51:35;10.50;96.00
47813;DHT22;34221;45.296;9.516;2023-04-26T00:51:51;10.50;96.10
47813;DHT22;34221;45.296;9.516;2023-04-26T00:52:07;10.50;96.10
47813;DHT22;34221;45.296;9.516;2023-04-26T00:52:21;10.50;96.10
47813;DHT22;34221;45.296;9.516;2023-04-26T00:52:37;10.50;96.10
47813;DHT22;34221;45.296;9.516;2023-04-26T00:52:53;10.60;96.10
47813;DHT22;34221;45.296;9.516;2023-04-26T00:53:08;10.60;95.90
47813;DHT22;34221;45.296;9.516;2023-04-26T00:53:24;10.60;96.00
47813;DHT22;34221;45.296;9.516;2023-04-26T00:53:40;10.60;96.10
47813;DHT22;34221;45.296;9.516;2023-04-26T00:53:56;10.60;96.10
47813;DHT22;34221;45.296;9.516;2023-04-26T00:54:11;10.60;96.10
47813;DHT22;34221;45.296;9.516;2023-04-26T00:54:27;10.60;96.30
47813;DHT22;34221;45.296;9.516;2023-04-26T00:54:42;10.60;96.40
47813;DHT22;34221;45.296;9.516;2023-04-26T00:54:57;10.60;96.40
47813;DHT22;34221;45.296;9.516;2023-04-26T00:55:12;10.60;96.40
47813;DHT22;34221;45.296;9.516;2023-04-26T00:55:27;10.70;96.40
47813;DHT22;34221;45.296;9.516;2023-04-26T00:55:42;10.70;96.40
47813;DHT22;34221;45.296;9.516;2023-04-26T00:55:58;10.70;96.40
47813;DHT22;34221;45.296;9.516;2023-04-26T00:56:13;10.70;96.30
47813;DHT22;34221;45.296;9.516;2023-04-26T00:56:29;10.70;96.30
47813;DHT22;34221;45.296;9.516;2023-04-26T00:56:45;10.70;96.30
47813;DHT22;34221;45.296;9.516;2023-04-26T00:57:01;10.70;96.30
47813;DHT22;34221;45.296;9.516;2023-04-26T00:57:16;10.70;96.30
47813;DHT22;34221;45.296;9.516;2023-04-26T00:57:31;10.70;96.30
47813;DHT22;34221;45.296;9.516;2023-04-26T00:57:45;10.70;96.30
47813;DHT22;34221;45.296;9.516;2023-04-26T00:58:00;10.70;96.40
47813;DHT22;34221;45.296;9.516;2023-04-26T00:58:15;10.70;96.30
47813;DHT22;34221;45.296;9.516;2023-04-26T00:58:33;10.70;96.20
47813;DHT22;34221;45.296;9.516;2023-04-26T00:58:48;10.70;96.10
47813;DHT22;34221;45.296;9.516;2023-04-26T00:59:03;10.70;96.10
47813;DHT22;34221;45.296;9.516;2023-04-26T00:59:21;10.70;96.10
47813;DHT22;34221;45.296;9.516;2023-04-26T00:59:36;10.70;96.20
47813;DHT22;34221;45.296;9.516;2023-04-26T00:59:51;10.70;96.30
47813;DHT22;34221;45.296;9.516;2023-04-26T01:00:06;10.60;96.40
47813;DHT22;34221;45.296;9.516;2023-04-26T01:00:21;10.70;96.40
47813;DHT22;34221;45.296;9.516;2023-04-26T01:00:36;10.70;96.50
47813;DHT22;34221;45.296;9.516;2023-04-26T01:00:51;10.70;96.60
47813;DHT22;34221;45.296;9.516;2023-04-26T01:01:06;10.70;96.50
47813;DHT22;34221;45.296;9.516;2023-04-26T01:01:21;10.70;96.70
47813;DHT22;34221;45.296;9.516;2023-04-26T01:01:36;10.70;96.70
47813;DHT22;34221;45.296;9.516;2023-04-26T01:01:51;10.70;96.80
47813;DHT22;34221;45.296;9.516;2023-04-26T01:02:06;10.70;96.80
47813;DHT22;34221;45.296;9.516;2023-04-26T01:02:21;10.70;96.70
47813;DHT22;34221;45.296;9.516;2023-04-26T01:02:36;10.70;96.80
47813;DHT22;34221;45.296;9.516;2023-04-26T01:02:52;10.70;96.70
47813;DHT22;34221;45.296;9.516;2023-04-26T01:03:06;10.70;96.70
47813;DHT22;34221;45.296;9.516;2023-04-26T01:03:23;10.70;96.70
47813;DHT22;34221;45.296;9.516;2023-04-26T01:03:38;10.70;96.80
47813;DHT22;34221;45.296;9.516;2023-04-26T01:03:53;10.70;96.90
47813;DHT22;34221;45.296;9.516;2023-04-26T01:04:08;10.70;96.90
47813;DHT22;34221;45.296;9.516;2023-04-26T01:04:23;10.70;96.90
47813;DHT22;34221;45.296;9.516;2023-04-26T01:04:40;10.70;96.80
47813;DHT22;34221;45.296;9.516;2023-04-26T01:04:55;10.70;96.80
47813;DHT22;34221;45.296;9.516;2023-04-26T01:05:10;10.70;96.70
47813;DHT22;34221;45.296;9.516;2023-04-26T01:05:25;10.70;96.70
47813;DHT22;34221;45.296;9.516;2023-04-26T01:05:39;10.70;96.70
47813;DHT22;34221;45.296;9.516;2023-04-26T01:05:54;10.70;96.80
47813;DHT22;34221;45.296;9.516;2023-04-26T01:06:09;10.70;97.10
47813;DHT22;34221;45.296;9.516;2023-04-26T01:06:31;10.70;96.80
47813;DHT22;34221;45.296;9.516;2023-04-26T01:06:46;10.70;96.80
47813;DHT22;34221;45.296;9.516;2023-04-26T01:07:01;10.70;96.90
47813;DHT22;34221;45.296;9.516;2023-04-26T01:07:16;10.70;96.80
47813;DHT22;34221;45.296;9.516;2023-04-26T01:07:32;10.70;96.90
47813;DHT22;34221;45.296;9.516;2023-04-26T01:07:50;10.70;96.90
47813;DHT22;34221;45.296;9.516;2023-04-26T01:08:05;10.70;97.00
47813;DHT22;34221;45.296;9.516;2023-04-26T01:08:21;10.70;97.10
47813;DHT22;34221;45.296;9.516;2023-04-26T01:08:38;10.70;97.10
47813;DHT22;34221;45.296;9.516;2023-04-26T01:08:53;10.70;97.10
47813;DHT22;34221;45.296;9.516;2023-04-26T01:09:10;10.70;97.10
47813;DHT22;34221;45.296;9.516;2023-04-26T01:09:31;10.60;97.20
47813;DHT22;34221;45.296;9.516;2023-04-26T01:09:48;10.60;97.30
47813;DHT22;34221;45.296;9.516;2023-04-26T01:10:03;10.60;97.30
47813;DHT22;34221;45.296;9.516;2023-04-26T01:10:19;10.60;97.30
47813;DHT22;34221;45.296;9.516;2023-04-26T01:10:34;10.60;97.40
47813;DHT22;34221;45.296;9.516;2023-04-26T01:10:49;10.60;97.40
47813;DHT22;34221;45.296;9.516;2023-04-26T01:11:04;10.60;97.40
47813;DHT22;34221;45.296;9.516;2023-04-26T01:11:20;10.60;97.50
47813;DHT22;34221;45.296;9.516;2023-04-26T01:11:36;10.60;97.50
47813;DHT22;34221;45.296;9.516;2023-04-26T01:11:51;10.60;97.60
47813;DHT22;34221;45.296;9.516;2023-04-26T01:12:07;10.70;97.80
47813;DHT22;34221;45.296;9.516;2023-04-26T01:12:23;10.70;97.70
47813;DHT22;34221;45.296;9.516;2023-04-26T01:12:38;10.70;97.70
47813;DHT22;34221;45.296;9.516;2023-04-26T01:12:53;10.70;97.70
47813;DHT22;34221;45.296;9.516;2023-04-26T01:13:08;10.70;97.60
47813;DHT22;34221;45.296;9.516;2023-04-26T01:13:23;10.70;97.70
47813;DHT22;34221;45.296;9.516;2023-04-26T01:13:40;10.70;97.70
47813;DHT22;34221;45.296;9.516;2023-04-26T01:13:56;10.60;97.60
47813;DHT22;34221;45.296;9.516;2023-04-26T01:14:16;10.70;97.60
47813;DHT22;34221;45.296;9.516;2023-04-26T01:14:32;10.60;97.70
47813;DHT22;34221;45.296;9.516;2023-04-26T01:14:48;10.60;97.60
47813;DHT22;34221;45.296;9.516;2023-04-26T01:15:04;10.60;97.70
47813;DHT22;34221;45.296;9.516;2023-04-26T01:15:20;10.60;97.80
47813;DHT22;34221;45.296;9.516;2023-04-26T01:15:39;10.60;97.80
47813;DHT22;34221;45.296;9.516;2023-04-26T01:15:55;10.60;97.80
47813;DHT22;34221;45.296;9.516;2023-04-26T01:16:11;10.60;97.70
47813;DHT22;34221;45.296;9.516;2023-04-26T01:16:29;10.60;97.70
47813;DHT22;34221;45.296;9.516;2023-04-26T01:16:44;10.60;97.70
47813;DHT22;34221;45.296;9.516;2023-04-26T01:17:02;10.60;97.70
47813;DHT22;34221;45.296;9.516;2023-04-26T01:17:17;10.60;97.70
47813;DHT22;34221;45.296;9.516;2023-04-26T01:17:33;10.60;97.80
47813;DHT22;34221;45.296;9.516;2023-04-26T01:17:48;10.60;97.70
47813;DHT22;34221;45.296;9.516;2023-04-26T01:18:03;10.60;97.70
47813;DHT22;34221;45.296;9.516;2023-04-26T01:18:18;10.60;97.70
47813;DHT22;34221;45.296;9.516;2023-04-26T01:18:34;10.60;97.80
47813;DHT22;34221;45.296;9.516;2023-04-26T01:18:52;10.60;97.80
47813;DHT22;34221;45.296;9.516;2023-04-26T01:19:09;10.60;98.00
47813;DHT22;34221;45.296;9.516;2023-04-26T01:19:27;10.60;98.00
47813;DHT22;34221;45.296;9.516;2023-04-26T01:19:48;10.60;98.00
47813;DHT22;34221;45.296;9.516;2023-04-26T01:20:04;10.60;97.90
47813;DHT22;34221;45.296;9.516;2023-04-26T01:20:19;10.60;98.00
47813;DHT22;34221;45.296;9.516;2023-04-26T01:20:34;10.60;98.10
47813;DHT22;34221;45.296;9.516;2023-04-26T01:20:49;10.60;98.10
47813;DHT22;34221;45.296;9.516;2023-04-26T01:21:06;10.60;98.10
47813;DHT22;34221;45.296;9.516;2023-04-26T01:21:24;10.60;98.20
47813;DHT22;34221;45.296;9.516;2023-04-26T01:21:39;10.60;98.10
47813;DHT22;34221;45.296;9.516;2023-04-26T01:21:54;10.60;98.20
47813;DHT22;34221;45.296;9.516;2023-04-26T01:22:09;10.60;98.30
47813;DHT22;34221;45.296;9.516;2023-04-26T01:22:24;10.60;98.30
47813;DHT22;34221;45.296;9.516;2023-04-26T01:22:39;10.60;98.20
47813;DHT22;34221;45.296;9.516;2023-04-26T01:22:54;10.60;98.20
47813;DHT22;34221;45.296;9.516;2023-04-26T01:23:10;10.60;98.40
47813;DHT22;34221;45.296;9.516;2023-04-26T01:23:26;10.60;98.30
47813;DHT22;34221;45.296;9.516;2023-04-26T01:23:41;10.60;98.30
47813;DHT22;34221;45.296;9.516;2023-04-26T01:23:56;10.60;98.30
47813;DHT22;34221;45.296;9.516;2023-04-26T01:24:12;10.60;98.20
47813;DHT22;34221;45.296;9.516;2023-04-26T01:24:27;10.60;98.20
47813;DHT22;34221;45.296;9.516;2023-04-26T01:24:43;10.60;98.20
47813;DHT22;34221;45.296;9.516;2023-04-26T01:24:58;10.60;98.30
47813;DHT22;34221;45.296;9.516;2023-04-26T01:25:15;10.60;98.50
47813;DHT22;34221;45.296;9.516;2023-04-26T01:25:30;10.50;98.50
47813;DHT22;34221;45.296;9.516;2023-04-26T01:25:46;10.50;98.50
47813;DHT22;34221;45.296;9.516;2023-04-26T01:26:01;10.60;98.40
47813;DHT22;34221;45.296;9.516;2023-04-26T01:26:16;10.60;98.50
47813;DHT22;34221;45.296;9.516;2023-04-26T01:26:31;10.60;98.50
47813;DHT22;34221;45.296;9.516;2023-04-26T01:26:46;10.60;98.50
47813;DHT22;34221;45.296;9.516;2023-04-26T01:27:02;10.60;98.50
47813;DHT22;34221;45.296;9.516;2023-04-26T01:27:17;10.60;98.50
47813;DHT22;34221;45.296;9.516;2023-04-26T01:27:32;10.60;98.50
47813;DHT22;34221;45.296;9.516;2023-04-26T01:27:47;10.60;98.40
47813;DHT22;34221;45.296;9.516;2023-04-26T01:28:01;10.60;98.30
47813;DHT22;34221;45.296;9.516;2023-04-26T01:28:17;10.60;98.40
47813;DHT22;34221;45.296;9.516;2023-04-26T01:28:33;10.60;98.50
47813;DHT22;34221;45.296;9.516;2023-04-26T01:28:47;10.60;98.50
47813;DHT22;34221;45.296;9.516;2023-04-26T01:29:15;10.60;98.50
47813;DHT22;34221;45.296;9.516;2023-04-26T01:29:31;10.60;98.30
47813;DHT22;34221;45.296;9.516;2023-04-26T01:29:45;10.70;98.20
47813;DHT22;34221;45.296;9.516;2023-04-26T01:30:01;10.70;98.20
47813;DHT22;34221;45.296;9.516;2023-04-26T01:30:16;10.70;98.50
47813;DHT22;34221;45.296;9.516;2023-04-26T01:30:30;10.70;98.30
47813;DHT22;34221;45.296;9.516;2023-04-26T01:30:45;10.70;98.40
47813;DHT22;34221;45.296;9.516;2023-04-26T01:31:00;10.70;98.40
47813;DHT22;34221;45.296;9.516;2023-04-26T01:31:15;10.70;98.30
47813;DHT22;34221;45.296;9.516;2023-04-26T01:31:29;10.70;98.20
47813;DHT22;34221;45.296;9.516;2023-04-26T01:31:46;10.70;98.20
47813;DHT22;34221;45.296;9.516;2023-04-26T01:32:01;10.70;98.20
47813;DHT22;34221;45.296;9.516;2023-04-26T01:32:16;10.70;98.20
47813;DHT22;34221;45.296;9.516;2023-04-26T01:32:31;10.70;98.20
47813;DHT22;34221;45.296;9.516;2023-04-26T01:32:46;10.70;98.10
47813;DHT22;34221;45.296;9.516;2023-04-26T01:33:00;10.70;98.10
47813;DHT22;34221;45.296;9.516;2023-04-26T01:33:15;10.70;98.20
47813;DHT22;34221;45.296;9.516;2023-04-26T01:33:30;10.70;98.10
47813;DHT22;34221;45.296;9.516;2023-04-26T01:33:45;10.70;98.20
47813;DHT22;34221;45.296;9.516;2023-04-26T01:33:59;10.70;98.20
47813;DHT22;34221;45.296;9.516;2023-04-26T01:34:14;10.70;98.30
47813;DHT22;34221;45.296;9.516;2023-04-26T01:34:29;10.70;98.30
47813;DHT22;34221;45.296;9.516;2023-04-26T01:34:44;10.60;98.20
47813;DHT22;34221;45.296;9.516;2023-04-26T01:35:00;10.70;98.30
47813;DHT22;34221;45.296;9.516;2023-04-26T01:35:14;10.70;98.40
47813;DHT22;34221;45.296;9.516;2023-04-26T01:35:29;10.60;98.30
47813;DHT22;34221;45.296;9.516;2023-04-26T01:35:44;10.70;98.30
47813;DHT22;34221;45.296;9.516;2023-04-26T01:35:59;10.60;98.30
47813;DHT22;34221;45.296;9.516;2023-04-26T01:36:14;10.70;98.40
47813;DHT22;34221;45.296;9.516;2023-04-26T01:36:28;10.70;98.40
47813;DHT22;34221;45.296;9.516;2023-04-26T01:36:43;10.70;98.40
47813;DHT22;34221;45.296;9.516;2023-04-26T01:36:58;10.70;98.40
47813;DHT22;34221;45.296;9.516;2023-04-26T01:37:15;10.60;98.40